sensor_id;sensor_type;location;lat;lon;timestamp;P1;durP1;ratioP1;P2;durP2;ratioP2
25231;SDS011;13176;51.140;6.290;2023-06-10T00:00:07;742.60;;;686.97;;
25231;SDS011;13176;51.140;6.290;2023-06-10T00:02:34;946.55;;;863.90;;
25231;SDS011;13176;51.140;6.290;2023-06-10T00:05:01;1022.85;;;929.20;;
25231;SDS011;13176;51.140;6.290;2023-06-10T00:07:28;928.10;;;848.55;;
25231;SDS011;13176;51.140;6.290;2023-06-10T00:09:54;1051.65;;;949.88;;
25231;SDS011;13176;51.140;6.290;2023-06-10T00:12:21;1024.88;;;931.25;;
25231;SDS011;13176;51.140;6.290;2023-06-10T00:14:47;1043.63;;;943.70;;
25231;SDS011;13176;51.140;6.290;2023-06-10T00:17:16;1019.05;;;929.53;;
25231;SDS011;13176;51.140;6.290;2023-06-10T00:19:45;683.22;;;633.47;;
25231;SDS011;13176;51.140;6.290;2023-06-10T00:22:13;645.13;;;598.38;;
25231;SDS011;13176;51.140;6.290;2023-06-10T00:24:40;529.80;;;493.92;;
25231;SDS011;13176;51.140;6.290;2023-06-10T00:27:08;589.95;;;550.15;;
25231;SDS011;13176;51.140;6.290;2023-06-10T00:29:34;615.72;;;572.03;;
25231;SDS011;13176;51.140;6.290;2023-06-10T00:32:01;545.63;;;508.83;;
25231;SDS011;13176;51.140;6.290;2023-06-10T00:34:28;755.67;;;700.17;;
25231;SDS011;13176;51.140;6.290;2023-06-10T00:36:54;614.00;;;571.72;;
25231;SDS011;13176;51.140;6.290;2023-06-10T00:39:23;644.30;;;599.08;;
25231;SDS011;13176;51.140;6.290;2023-06-10T00:41:49;663.47;;;616.53;;
25231;SDS011;13176;51.140;6.290;2023-06-10T00:44:16;713.13;;;660.45;;
25231;SDS011;13176;51.140;6.290;2023-06-10T00:46:42;648.78;;;603.92;;
25231;SDS011;13176;51.140;6.290;2023-06-10T00:49:09;795.45;;;734.58;;
25231;SDS011;13176;51.140;6.290;2023-06-10T00:51:36;751.72;;;695.40;;
25231;SDS011;13176;51.140;6.290;2023-06-10T00:54:02;651.80;;;604.95;;
25231;SDS011;13176;51.140;6.290;2023-06-10T00:56:30;797.10;;;734.88;;
25231;SDS011;13176;51.140;6.290;2023-06-10T00:58:57;728.90;;;675.03;;
25231;SDS011;13176;51.140;6.290;2023-06-10T01:01:24;848.85;;;782.90;;
25231;SDS011;13176;51.140;6.290;2023-06-10T01:03:51;825.28;;;762.30;;
25231;SDS011;13176;51.140;6.290;2023-06-10T01:06:21;908.58;;;833.03;;
25231;SDS011;13176;51.140;6.290;2023-06-10T01:09:15;850.70;;;784.58;;
25231;SDS011;13176;51.140;6.290;2023-06-10T01:14:36;788.83;;;728.63;;
25231;SDS011;13176;51.140;6.290;2023-06-10T01:17:02;820.40;;;756.08;;
25231;SDS011;13176;51.140;6.290;2023-06-10T01:19:31;847.28;;;780.00;;
25231;SDS011;13176;51.140;6.290;2023-06-10T01:22:00;944.70;;;860.58;;
25231;SDS011;13176;51.140;6.290;2023-06-10T01:24:27;869.65;;;800.47;;
25231;SDS011;13176;51.140;6.290;2023-06-10T01:26:54;883.20;;;811.42;;
25231;SDS011;13176;51.140;6.290;2023-06-10T01:29:41;888.67;;;814.70;;
25231;SDS011;13176;51.140;6.290;2023-06-10T01:32:21;882.65;;;808.13;;
25231;SDS011;13176;51.140;6.290;2023-06-10T01:34:52;926.63;;;849.90;;
25231;SDS011;13176;51.140;6.290;2023-06-10T01:37:22;982.50;;;894.55;;
25231;SDS011;13176;51.140;6.290;2023-06-10T01:39:53;975.83;;;889.83;;
25231;SDS011;13176;51.140;6.290;2023-06-10T01:42:23;994.92;;;903.10;;
25231;SDS011;13176;51.140;6.290;2023-06-10T01:44:49;1019.88;;;924.65;;
25231;SDS011;13176;51.140;6.290;2023-06-10T01:47:16;993.70;;;903.08;;
25231;SDS011;13176;51.140;6.290;2023-06-10T01:49:42;1031.05;;;935.38;;
25231;SDS011;13176;51.140;6.290;2023-06-10T01:52:09;1031.03;;;935.47;;
25231;SDS011;13176;51.140;6.290;2023-06-10T01:54:35;1030.13;;;933.88;;
25231;SDS011;13176;51.140;6.290;2023-06-10T01:57:02;1063.70;;;957.17;;
25231;SDS011;13176;51.140;6.290;2023-06-10T01:59:29;1045.60;;;945.42;;
25231;SDS011;13176;51.140;6.290;2023-06-10T02:01:55;1078.82;;;976.53;;
25231;SDS011;13176;51.140;6.290;2023-06-10T02:04:21;1042.55;;;943.35;;
25231;SDS011;13176;51.140;6.290;2023-06-10T02:06:48;1067.25;;;965.08;;
25231;SDS011;13176;51.140;6.290;2023-06-10T02:09:14;1084.50;;;979.13;;
25231;SDS011;13176;51.140;6.290;2023-06-10T02:11:41;1079.03;;;972.40;;
25231;SDS011;13176;51.140;6.290;2023-06-10T02:14:07;1091.13;;;982.63;;
25231;SDS011;13176;51.140;6.290;2023-06-10T02:16:34;1129.70;;;998.97;;
25231;SDS011;13176;51.140;6.290;2023-06-10T02:19:00;1114.97;;;994.55;;
25231;SDS011;13176;51.140;6.290;2023-06-10T02:21:27;1120.03;;;995.38;;
25231;SDS011;13176;51.140;6.290;2023-06-10T02:23:53;1104.72;;;988.28;;
25231;SDS011;13176;51.140;6.290;2023-06-10T02:26:20;1121.18;;;998.28;;
25231;SDS011;13176;51.140;6.290;2023-06-10T02:28:47;1085.97;;;976.92;;
25231;SDS011;13176;51.140;6.290;2023-06-10T02:31:13;1085.13;;;977.58;;
25231;SDS011;13176;51.140;6.290;2023-06-10T02:33:40;1093.03;;;982.80;;
25231;SDS011;13176;51.140;6.290;2023-06-10T02:36:08;1124.28;;;998.65;;
25231;SDS011;13176;51.140;6.290;2023-06-10T02:38:34;1145.43;;;999.90;;
25231;SDS011;13176;51.140;6.290;2023-06-10T02:41:01;1128.30;;;999.33;;
25231;SDS011;13176;51.140;6.290;2023-06-10T02:43:27;1096.07;;;987.13;;
25231;SDS011;13176;51.140;6.290;2023-06-10T02:45:54;1122.15;;;999.33;;
25231;SDS011;13176;51.140;6.290;2023-06-10T02:48:20;1116.32;;;995.25;;
25231;SDS011;13176;51.140;6.290;2023-06-10T02:50:47;1114.90;;;995.78;;
25231;SDS011;13176;51.140;6.290;2023-06-10T02:53:13;1112.20;;;996.30;;
25231;SDS011;13176;51.140;6.290;2023-06-10T02:55:41;1100.97;;;988.03;;
25231;SDS011;13176;51.140;6.290;2023-06-10T02:58:07;1123.60;;;998.58;;
25231;SDS011;13176;51.140;6.290;2023-06-10T03:00:33;1127.68;;;999.90;;
25231;SDS011;13176;51.140;6.290;2023-06-10T03:03:00;1140.15;;;999.90;;
25231;SDS011;13176;51.140;6.290;2023-06-10T03:05:29;1135.03;;;999.90;;
25231;SDS011;13176;51.140;6.290;2023-06-10T03:07:56;1119.95;;;997.70;;
25231;SDS011;13176;51.140;6.290;2023-06-10T03:10:22;1096.90;;;988.97;;
25231;SDS011;13176;51.140;6.290;2023-06-10T03:12:49;1088.13;;;977.92;;
25231;SDS011;13176;51.140;6.290;2023-06-10T03:15:15;1058.13;;;956.42;;
25231;SDS011;13176;51.140;6.290;2023-06-10T03:17:42;1057.78;;;955.20;;
25231;SDS011;13176;51.140;6.290;2023-06-10T03:20:08;1044.20;;;942.40;;
25231;SDS011;13176;51.140;6.290;2023-06-10T03:22:36;1052.35;;;951.55;;
25231;SDS011;13176;51.140;6.290;2023-06-10T03:25:04;1066.10;;;965.00;;
25231;SDS011;13176;51.140;6.290;2023-06-10T03:27:32;1079.07;;;971.30;;
25231;SDS011;13176;51.140;6.290;2023-06-10T03:29:59;1074.28;;;965.08;;
25231;SDS011;13176;51.140;6.290;2023-06-10T03:32:25;1103.07;;;990.25;;
25231;SDS011;13176;51.140;6.290;2023-06-10T03:34:52;1087.05;;;978.25;;
25231;SDS011;13176;51.140;6.290;2023-06-10T03:37:23;1110.60;;;994.33;;
25231;SDS011;13176;51.140;6.290;2023-06-10T03:39:51;1072.72;;;968.40;;
25231;SDS011;13176;51.140;6.290;2023-06-10T03:42:17;1104.03;;;991.70;;
25231;SDS011;13176;51.140;6.290;2023-06-10T03:44:44;1121.80;;;997.10;;
25231;SDS011;13176;51.140;6.290;2023-06-10T03:47:10;1076.55;;;970.40;;
25231;SDS011;13176;51.140;6.290;2023-06-10T03:49:38;1103.47;;;989.30;;
25231;SDS011;13176;51.140;6.290;2023-06-10T03:52:06;1087.03;;;980.13;;
25231;SDS011;13176;51.140;6.290;2023-06-10T03:54:33;1102.13;;;988.08;;
25231;SDS011;13176;51.140;6.290;2023-06-10T03:57:00;1082.50;;;973.88;;
25231;SDS011;13176;51.140;6.290;2023-06-10T03:59:27;1074.65;;;968.50;;
25231;SDS011;13176;51.140;6.290;2023-06-10T04:01:54;1120.00;;;998.08;;
25231;SDS011;13176;51.140;6.290;2023-06-10T04:04:21;1087.68;;;977.80;;
25231;SDS011;13176;51.140;6.290;2023-06-10T04:06:47;1083.82;;;977.08;;
25231;SDS011;13176;51.140;6.290;2023-06-10T04:09:14;1080.20;;;973.42;;
25231;SDS011;13176;51.140;6.290;2023-06-10T04:11:42;1093.63;;;984.00;;
25231;SDS011;13176;51.140;6.290;2023-06-10T04:14:08;1112.65;;;996.08;;
25231;SDS011;13176;51.140;6.290;2023-06-10T04:16:35;1126.13;;;999.90;;
25231;SDS011;13176;51.140;6.290;2023-06-10T04:19:01;1102.28;;;989.15;;
25231;SDS011;13176;51.140;6.290;2023-06-10T04:21:28;1132.05;;;999.90;;
25231;SDS011;13176;51.140;6.290;2023-06-10T04:23:54;1129.32;;;999.78;;
25231;SDS011;13176;51.140;6.290;2023-06-10T04:26:21;1147.50;;;999.90;;
25231;SDS011;13176;51.140;6.290;2023-06-10T04:28:48;1373.50;;;999.90;;
25231;SDS011;13176;51.140;6.290;2023-06-10T04:31:14;1152.40;;;999.90;;
25231;SDS011;13176;51.140;6.290;2023-06-10T04:33:41;1165.45;;;999.90;;
25231;SDS011;13176;51.140;6.290;2023-06-10T04:36:07;1158.95;;;999.90;;
25231;SDS011;13176;51.140;6.290;2023-06-10T04:38:33;1348.72;;;999.90;;
25231;SDS011;13176;51.140;6.290;2023-06-10T04:41:00;1361.18;;;999.90;;
25231;SDS011;13176;51.140;6.290;2023-06-10T04:43:27;1158.70;;;999.90;;
25231;SDS011;13176;51.140;6.290;2023-06-10T04:45:55;1339.50;;;997.80;;
25231;SDS011;13176;51.140;6.290;2023-06-10T04:48:21;1172.45;;;999.90;;
25231;SDS011;13176;51.140;6.290;2023-06-10T04:50:49;1359.68;;;999.90;;
25231;SDS011;13176;51.140;6.290;2023-06-10T04:53:16;1999.90;;;999.90;;
25231;SDS011;13176;51.140;6.290;2023-06-10T04:55:43;1180.72;;;999.90;;
25231;SDS011;13176;51.140;6.290;2023-06-10T04:58:10;1348.05;;;999.90;;
25231;SDS011;13176;51.140;6.290;2023-06-10T05:00:36;1150.85;;;999.90;;
25231;SDS011;13176;51.140;6.290;2023-06-10T05:03:03;1134.38;;;999.90;;
25231;SDS011;13176;51.140;6.290;2023-06-10T05:05:29;1383.47;;;999.90;;
25231;SDS011;13176;51.140;6.290;2023-06-10T05:07:56;1999.90;;;999.90;;
25231;SDS011;13176;51.140;6.290;2023-06-10T05:10:22;1999.90;;;999.90;;
25231;SDS011;13176;51.140;6.290;2023-06-10T05:12:49;1394.00;;;999.90;;
25231;SDS011;13176;51.140;6.290;2023-06-10T05:15:15;1999.90;;;999.90;;
25231;SDS011;13176;51.140;6.290;2023-06-10T05:17:42;1374.22;;;999.90;;
25231;SDS011;13176;51.140;6.290;2023-06-10T05:20:09;1087.97;;;975.33;;
25231;SDS011;13176;51.140;6.290;2023-06-10T05:22:35;1197.82;;;999.90;;
25231;SDS011;13176;51.140;6.290;2023-06-10T05:25:02;1187.97;;;999.90;;
25231;SDS011;13176;51.140;6.290;2023-06-10T05:27:29;1999.90;;;999.90;;
25231;SDS011;13176;51.140;6.290;2023-06-10T05:29:55;1448.60;;;884.70;;
25231;SDS011;13176;51.140;6.290;2023-06-10T05:32:22;1999.90;;;999.90;;
25231;SDS011;13176;51.140;6.290;2023-06-10T05:34:49;1999.90;;;999.90;;
25231;SDS011;13176;51.140;6.290;2023-06-10T05:37:15;1183.78;;;999.90;;
25231;SDS011;13176;51.140;6.290;2023-06-10T05:39:42;1999.90;;;999.90;;
25231;SDS011;13176;51.140;6.290;2023-06-10T05:42:09;1999.90;;;999.90;;
25231;SDS011;13176;51.140;6.290;2023-06-10T05:44:36;1999.90;;;999.90;;
25231;SDS011;13176;51.140;6.290;2023-06-10T05:47:03;1350.85;;;998.97;;
25231;SDS011;13176;51.140;6.290;2023-06-10T05:49:30;1091.05;;;977.05;;
25231;SDS011;13176;51.140;6.290;2023-06-10T05:51:56;1052.30;;;945.20;;
25231;SDS011;13176;51.140;6.290;2023-06-10T05:54:25;1105.07;;;986.55;;
25231;SDS011;13176;51.140;6.290;2023-06-10T05:56:55;1251.25;;;999.90;;
25231;SDS011;13176;51.140;6.290;2023-06-10T05:59:22;1999.90;;;999.90;;
25231;SDS011;13176;51.140;6.290;2023-06-10T06:01:49;1999.90;;;999.90;;
25231;SDS011;13176;51.140;6.290;2023-06-10T06:04:16;1168.55;;;999.90;;
25231;SDS011;13176;51.140;6.290;2023-06-10T06:06:42;1129.55;;;998.45;;
25231;SDS011;13176;51.140;6.290;2023-06-10T06:09:09;1245.70;;;999.90;;
25231;SDS011;13176;51.140;6.290;2023-06-10T06:11:36;1134.78;;;998.97;;
25231;SDS011;13176;51.140;6.290;2023-06-10T06:14:02;1055.95;;;951.28;;
25231;SDS011;13176;51.140;6.290;2023-06-10T06:16:29;1144.55;;;999.90;;
25231;SDS011;13176;51.140;6.290;2023-06-10T06:18:56;1121.80;;;994.88;;
25231;SDS011;13176;51.140;6.290;2023-06-10T06:21:22;1197.45;;;999.90;;
25231;SDS011;13176;51.140;6.290;2023-06-10T06:23:49;842.28;;;774.88;;
25231;SDS011;13176;51.140;6.290;2023-06-10T06:26:15;527.70;;;491.02;;
25231;SDS011;13176;51.140;6.290;2023-06-10T06:28:42;638.92;;;592.05;;
25231;SDS011;13176;51.140;6.290;2023-06-10T06:31:08;980.83;;;880.03;;
25231;SDS011;13176;51.140;6.290;2023-06-10T06:33:35;858.25;;;785.35;;
25231;SDS011;13176;51.140;6.290;2023-06-10T06:36:01;806.90;;;740.88;;
25231;SDS011;13176;51.140;6.290;2023-06-10T06:38:28;941.30;;;862.35;;
25231;SDS011;13176;51.140;6.290;2023-06-10T06:40:54;1052.60;;;955.78;;
25231;SDS011;13176;51.140;6.290;2023-06-10T06:43:21;1048.78;;;944.80;;
25231;SDS011;13176;51.140;6.290;2023-06-10T06:45:47;811.45;;;745.88;;
25231;SDS011;13176;51.140;6.290;2023-06-10T06:48:14;809.90;;;747.53;;
25231;SDS011;13176;51.140;6.290;2023-06-10T06:50:40;1081.93;;;969.75;;
25231;SDS011;13176;51.140;6.290;2023-06-10T06:53:08;127.22;;;120.22;;
25231;SDS011;13176;51.140;6.290;2023-06-10T06:55:34;147.82;;;139.55;;
25231;SDS011;13176;51.140;6.290;2023-06-10T06:58:01;126.63;;;119.55;;
25231;SDS011;13176;51.140;6.290;2023-06-10T07:00:30;124.45;;;117.20;;
25231;SDS011;13176;51.140;6.290;2023-06-10T07:02:57;808.33;;;741.10;;
25231;SDS011;13176;51.140;6.290;2023-06-10T07:05:46;91.35;;;86.07;;
25231;SDS011;13176;51.140;6.290;2023-06-10T07:08:22;118.60;;;111.95;;
25231;SDS011;13176;51.140;6.290;2023-06-10T07:10:51;85.57;;;80.25;;
25231;SDS011;13176;51.140;6.290;2023-06-10T07:13:30;53.78;;;50.53;;
25231;SDS011;13176;51.140;6.290;2023-06-10T07:19:26;187.70;;;176.10;;
25231;SDS011;13176;51.140;6.290;2023-06-10T07:21:53;166.15;;;155.73;;
25231;SDS011;13176;51.140;6.290;2023-06-10T07:24:20;81.90;;;77.05;;
25231;SDS011;13176;51.140;6.290;2023-06-10T07:26:47;142.02;;;133.30;;
25231;SDS011;13176;51.140;6.290;2023-06-10T07:29:13;156.90;;;147.50;;
25231;SDS011;13176;51.140;6.290;2023-06-10T07:31:43;126.88;;;119.22;;
25231;SDS011;13176;51.140;6.290;2023-06-10T07:34:09;150.38;;;140.82;;
25231;SDS011;13176;51.140;6.290;2023-06-10T07:36:41;125.88;;;118.40;;
25231;SDS011;13176;51.140;6.290;2023-06-10T07:39:08;101.13;;;95.30;;
25231;SDS011;13176;51.140;6.290;2023-06-10T07:41:34;105.40;;;99.03;;
25231;SDS011;13176;51.140;6.290;2023-06-10T07:44:01;93.72;;;87.97;;
25231;SDS011;13176;51.140;6.290;2023-06-10T07:46:28;100.88;;;94.90;;
25231;SDS011;13176;51.140;6.290;2023-06-10T07:48:55;90.53;;;85.18;;
25231;SDS011;13176;51.140;6.290;2023-06-10T07:51:25;80.55;;;75.65;;
25231;SDS011;13176;51.140;6.290;2023-06-10T07:53:51;94.50;;;88.82;;
25231;SDS011;13176;51.140;6.290;2023-06-10T07:56:20;92.30;;;86.82;;
25231;SDS011;13176;51.140;6.290;2023-06-10T07:58:49;79.00;;;74.50;;
25231;SDS011;13176;51.140;6.290;2023-06-10T08:01:16;85.82;;;80.50;;
25231;SDS011;13176;51.140;6.290;2023-06-10T08:03:50;80.43;;;75.47;;
25231;SDS011;13176;51.140;6.290;2023-06-10T08:06:17;73.85;;;69.22;;
25231;SDS011;13176;51.140;6.290;2023-06-10T08:08:44;78.30;;;73.47;;
25231;SDS011;13176;51.140;6.290;2023-06-10T08:11:15;83.40;;;78.13;;
25231;SDS011;13176;51.140;6.290;2023-06-10T08:13:41;59.25;;;55.70;;
25231;SDS011;13176;51.140;6.290;2023-06-10T08:16:08;63.25;;;59.28;;
25231;SDS011;13176;51.140;6.290;2023-06-10T08:18:34;63.78;;;60.08;;
25231;SDS011;13176;51.140;6.290;2023-06-10T08:21:04;95.95;;;90.22;;
25231;SDS011;13176;51.140;6.290;2023-06-10T08:23:36;62.67;;;58.97;;
25231;SDS011;13176;51.140;6.290;2023-06-10T08:26:14;80.97;;;76.13;;
25231;SDS011;13176;51.140;6.290;2023-06-10T08:28:45;82.53;;;77.68;;
25231;SDS011;13176;51.140;6.290;2023-06-10T08:31:11;84.32;;;79.32;;
25231;SDS011;13176;51.140;6.290;2023-06-10T08:33:47;88.60;;;83.40;;
25231;SDS011;13176;51.140;6.290;2023-06-10T08:36:13;66.57;;;62.40;;
25231;SDS011;13176;51.140;6.290;2023-06-10T08:38:40;56.10;;;52.90;;
25231;SDS011;13176;51.140;6.290;2023-06-10T08:41:08;67.47;;;63.30;;
25231;SDS011;13176;51.140;6.290;2023-06-10T08:43:54;68.75;;;64.65;;
25231;SDS011;13176;51.140;6.290;2023-06-10T08:46:39;67.93;;;64.03;;
25231;SDS011;13176;51.140;6.290;2023-06-10T08:49:10;109.38;;;102.95;;
25231;SDS011;13176;51.140;6.290;2023-06-10T08:51:49;61.78;;;57.97;;
25231;SDS011;13176;51.140;6.290;2023-06-10T08:54:18;117.25;;;110.45;;
25231;SDS011;13176;51.140;6.290;2023-06-10T08:56:51;81.63;;;76.63;;
25231;SDS011;13176;51.140;6.290;2023-06-10T08:59:24;86.53;;;81.57;;
25231;SDS011;13176;51.140;6.290;2023-06-10T09:01:54;76.15;;;71.55;;
25231;SDS011;13176;51.140;6.290;2023-06-10T09:04:21;78.25;;;73.30;;
25231;SDS011;13176;51.140;6.290;2023-06-10T09:06:50;68.03;;;63.83;;
25231;SDS011;13176;51.140;6.290;2023-06-10T09:09:17;62.13;;;58.05;;
25231;SDS011;13176;51.140;6.290;2023-06-10T09:11:46;71.07;;;67.05;;
25231;SDS011;13176;51.140;6.290;2023-06-10T09:14:14;62.10;;;58.38;;
25231;SDS011;13176;51.140;6.290;2023-06-10T09:16:43;77.18;;;72.63;;
25231;SDS011;13176;51.140;6.290;2023-06-10T09:19:15;72.82;;;68.63;;
25231;SDS011;13176;51.140;6.290;2023-06-10T09:21:42;96.53;;;90.57;;
25231;SDS011;13176;51.140;6.290;2023-06-10T09:26:50;69.53;;;65.35;;
25231;SDS011;13176;51.140;6.290;2023-06-10T09:29:17;87.28;;;82.07;;
25231;SDS011;13176;51.140;6.290;2023-06-10T09:31:46;83.55;;;78.47;;
25231;SDS011;13176;51.140;6.290;2023-06-10T09:34:14;65.15;;;61.42;;
25231;SDS011;13176;51.140;6.290;2023-06-10T09:36:42;72.65;;;68.03;;
25231;SDS011;13176;51.140;6.290;2023-06-10T09:39:18;59.63;;;56.03;;
25231;SDS011;13176;51.140;6.290;2023-06-10T09:41:46;96.25;;;90.70;;
25231;SDS011;13176;51.140;6.290;2023-06-10T09:44:15;108.90;;;102.60;;
25231;SDS011;13176;51.140;6.290;2023-06-10T09:46:46;62.20;;;58.60;;
25231;SDS011;13176;51.140;6.290;2023-06-10T09:49:15;107.13;;;101.05;;
25231;SDS011;13176;51.140;6.290;2023-06-10T09:54:24;84.70;;;79.68;;
25231;SDS011;13176;51.140;6.290;2023-06-10T09:56:58;63.30;;;59.70;;
25231;SDS011;13176;51.140;6.290;2023-06-10T09:59:29;61.28;;;57.80;;
25231;SDS011;13176;51.140;6.290;2023-06-10T10:01:58;75.03;;;70.72;;
25231;SDS011;13176;51.140;6.290;2023-06-10T10:04:28;97.85;;;92.25;;
25231;SDS011;13176;51.140;6.290;2023-06-10T10:06:55;63.55;;;59.83;;
25231;SDS011;13176;51.140;6.290;2023-06-10T10:09:21;69.78;;;65.57;;
25231;SDS011;13176;51.140;6.290;2023-06-10T10:11:51;114.13;;;107.25;;
25231;SDS011;13176;51.140;6.290;2023-06-10T10:14:22;60.40;;;56.88;;
25231;SDS011;13176;51.140;6.290;2023-06-10T10:16:57;70.60;;;66.63;;
25231;SDS011;13176;51.140;6.290;2023-06-10T10:19:28;80.85;;;76.13;;
25231;SDS011;13176;51.140;6.290;2023-06-10T10:22:03;65.82;;;61.88;;
25231;SDS011;13176;51.140;6.290;2023-06-10T10:24:40;93.88;;;88.25;;
25231;SDS011;13176;51.140;6.290;2023-06-10T10:27:18;85.40;;;80.18;;
25231;SDS011;13176;51.140;6.290;2023-06-10T10:29:53;56.60;;;53.53;;
25231;SDS011;13176;51.140;6.290;2023-06-10T10:32:26;109.47;;;102.53;;
25231;SDS011;13176;51.140;6.290;2023-06-10T10:35:10;103.45;;;97.35;;
25231;SDS011;13176;51.140;6.290;2023-06-10T10:37:50;117.13;;;109.95;;
25231;SDS011;13176;51.140;6.290;2023-06-10T10:40:24;110.65;;;103.60;;
25231;SDS011;13176;51.140;6.290;2023-06-10T10:42:56;95.15;;;89.53;;
25231;SDS011;13176;51.140;6.290;2023-06-10T10:45:24;118.75;;;111.45;;
25231;SDS011;13176;51.140;6.290;2023-06-10T10:47:54;109.25;;;103.05;;
25231;SDS011;13176;51.140;6.290;2023-06-10T10:50:22;108.60;;;102.28;;
25231;SDS011;13176;51.140;6.290;2023-06-10T10:53:03;92.72;;;87.30;;
25231;SDS011;13176;51.140;6.290;2023-06-10T10:55:57;119.63;;;112.85;;
25231;SDS011;13176;51.140;6.290;2023-06-10T10:58:25;131.75;;;123.95;;
25231;SDS011;13176;51.140;6.290;2023-06-10T11:00:57;173.13;;;162.70;;
25231;SDS011;13176;51.140;6.290;2023-06-10T11:03:28;97.38;;;91.80;;
25231;SDS011;13176;51.140;6.290;2023-06-10T11:06:11;195.57;;;183.95;;
25231;SDS011;13176;51.140;6.290;2023-06-10T11:11:24;216.15;;;203.50;;
25231;SDS011;13176;51.140;6.290;2023-06-10T11:16:27;216.45;;;203.80;;
25231;SDS011;13176;51.140;6.290;2023-06-10T11:18:55;182.70;;;171.65;;
25231;SDS011;13176;51.140;6.290;2023-06-10T11:21:23;256.42;;;240.77;;
25231;SDS011;13176;51.140;6.290;2023-06-10T11:23:57;224.45;;;210.80;;
25231;SDS011;13176;51.140;6.290;2023-06-10T11:31:22;292.02;;;274.20;;
25231;SDS011;13176;51.140;6.290;2023-06-10T11:34:01;240.68;;;226.27;;
25231;SDS011;13176;51.140;6.290;2023-06-10T11:36:36;289.95;;;272.38;;
25231;SDS011;13176;51.140;6.290;2023-06-10T11:41:36;248.93;;;234.05;;
25231;SDS011;13176;51.140;6.290;2023-06-10T11:44:08;245.70;;;231.00;;
25231;SDS011;13176;51.140;6.290;2023-06-10T11:46:47;330.08;;;309.77;;
25231;SDS011;13176;51.140;6.290;2023-06-10T11:49:16;356.33;;;333.95;;
25231;SDS011;13176;51.140;6.290;2023-06-10T11:51:43;340.33;;;318.95;;
25231;SDS011;13176;51.140;6.290;2023-06-10T11:54:18;249.68;;;234.95;;
25231;SDS011;13176;51.140;6.290;2023-06-10T11:56:46;226.63;;;212.98;;
25231;SDS011;13176;51.140;6.290;2023-06-10T11:59:12;255.43;;;240.20;;
25231;SDS011;13176;51.140;6.290;2023-06-10T12:01:45;221.68;;;208.70;;
25231;SDS011;13176;51.140;6.290;2023-06-10T12:04:14;286.38;;;268.60;;
25231;SDS011;13176;51.140;6.290;2023-06-10T12:06:48;272.02;;;255.65;;
25231;SDS011;13176;51.140;6.290;2023-06-10T12:09:26;247.80;;;232.80;;
25231;SDS011;13176;51.140;6.290;2023-06-10T12:11:56;254.00;;;239.10;;
25231;SDS011;13176;51.140;6.290;2023-06-10T12:17:21;321.42;;;301.05;;
25231;SDS011;13176;51.140;6.290;2023-06-10T12:19:50;299.48;;;281.15;;
25231;SDS011;13176;51.140;6.290;2023-06-10T12:22:17;272.52;;;256.33;;
25231;SDS011;13176;51.140;6.290;2023-06-10T12:24:58;248.93;;;234.20;;
25231;SDS011;13176;51.140;6.290;2023-06-10T12:27:25;317.40;;;297.35;;
25231;SDS011;13176;51.140;6.290;2023-06-10T12:29:54;230.07;;;216.43;;
25231;SDS011;13176;51.140;6.290;2023-06-10T12:32:21;223.65;;;210.70;;
25231;SDS011;13176;51.140;6.290;2023-06-10T12:35:03;265.13;;;249.35;;
25231;SDS011;13176;51.140;6.290;2023-06-10T12:37:31;227.48;;;213.93;;
25231;SDS011;13176;51.140;6.290;2023-06-10T12:40:03;228.00;;;214.10;;
25231;SDS011;13176;51.140;6.290;2023-06-10T12:42:32;261.98;;;245.45;;
25231;SDS011;13176;51.140;6.290;2023-06-10T12:45:03;264.15;;;248.60;;
25231;SDS011;13176;51.140;6.290;2023-06-10T12:47:34;258.50;;;243.32;;
25231;SDS011;13176;51.140;6.290;2023-06-10T12:50:02;283.75;;;267.10;;
25231;SDS011;13176;51.140;6.290;2023-06-10T12:52:29;236.23;;;222.23;;
25231;SDS011;13176;51.140;6.290;2023-06-10T12:54:57;292.02;;;274.38;;
25231;SDS011;13176;51.140;6.290;2023-06-10T12:57:24;287.08;;;269.48;;
25231;SDS011;13176;51.140;6.290;2023-06-10T12:59:51;259.75;;;244.15;;
25231;SDS011;13176;51.140;6.290;2023-06-10T13:02:19;279.23;;;262.40;;
25231;SDS011;13176;51.140;6.290;2023-06-10T13:04:50;243.93;;;229.57;;
25231;SDS011;13176;51.140;6.290;2023-06-10T13:07:17;224.30;;;211.02;;
25231;SDS011;13176;51.140;6.290;2023-06-10T13:09:44;267.70;;;252.00;;
25231;SDS011;13176;51.140;6.290;2023-06-10T13:12:10;212.25;;;199.88;;
25231;SDS011;13176;51.140;6.290;2023-06-10T13:14:42;248.82;;;234.30;;
25231;SDS011;13176;51.140;6.290;2023-06-10T13:17:08;273.98;;;257.63;;
25231;SDS011;13176;51.140;6.290;2023-06-10T13:19:35;234.90;;;221.07;;
25231;SDS011;13176;51.140;6.290;2023-06-10T13:22:01;235.52;;;221.55;;
25231;SDS011;13176;51.140;6.290;2023-06-10T13:24:29;214.65;;;201.95;;
25231;SDS011;13176;51.140;6.290;2023-06-10T13:26:58;216.73;;;203.98;;
25231;SDS011;13176;51.140;6.290;2023-06-10T13:29:24;256.10;;;241.23;;
25231;SDS011;13176;51.140;6.290;2023-06-10T13:31:51;214.10;;;201.48;;
25231;SDS011;13176;51.140;6.290;2023-06-10T13:34:18;246.98;;;232.68;;
25231;SDS011;13176;51.140;6.290;2023-06-10T13:36:44;245.07;;;230.77;;
25231;SDS011;13176;51.140;6.290;2023-06-10T13:39:10;272.48;;;256.23;;
25231;SDS011;13176;51.140;6.290;2023-06-10T13:41:38;242.07;;;227.82;;
25231;SDS011;13176;51.140;6.290;2023-06-10T13:44:05;200.25;;;188.30;;
25231;SDS011;13176;51.140;6.290;2023-06-10T13:46:32;259.67;;;244.68;;
25231;SDS011;13176;51.140;6.290;2023-06-10T13:48:59;292.38;;;275.20;;
25231;SDS011;13176;51.140;6.290;2023-06-10T13:51:25;254.23;;;239.35;;
25231;SDS011;13176;51.140;6.290;2023-06-10T13:53:54;206.82;;;195.00;;
25231;SDS011;13176;51.140;6.290;2023-06-10T13:56:23;210.40;;;198.25;;
25231;SDS011;13176;51.140;6.290;2023-06-10T13:58:49;233.68;;;219.85;;
25231;SDS011;13176;51.140;6.290;2023-06-10T14:01:16;190.25;;;179.13;;
25231;SDS011;13176;51.140;6.290;2023-06-10T14:03:42;192.38;;;181.20;;
25231;SDS011;13176;51.140;6.290;2023-06-10T14:06:09;138.52;;;130.02;;
25231;SDS011;13176;51.140;6.290;2023-06-10T14:08:38;121.18;;;114.00;;
25231;SDS011;13176;51.140;6.290;2023-06-10T14:11:07;185.18;;;173.85;;
25231;SDS011;13176;51.140;6.290;2023-06-10T14:13:33;201.38;;;189.38;;
25231;SDS011;13176;51.140;6.290;2023-06-10T14:16:00;175.75;;;165.27;;
25231;SDS011;13176;51.140;6.290;2023-06-10T14:18:29;228.85;;;215.07;;
25231;SDS011;13176;51.140;6.290;2023-06-10T14:20:55;215.90;;;203.00;;
25231;SDS011;13176;51.140;6.290;2023-06-10T14:23:22;188.43;;;177.43;;
25231;SDS011;13176;51.140;6.290;2023-06-10T14:25:50;225.02;;;211.80;;
25231;SDS011;13176;51.140;6.290;2023-06-10T14:28:17;212.77;;;200.27;;
25231;SDS011;13176;51.140;6.290;2023-06-10T14:30:51;296.15;;;278.30;;